sensor_id;sensor_type;location;lat;lon;timestamp;P1;durP1;ratioP1;P2;durP2;ratioP2
72132;SDS011;60008;50.826;6.896;2023-04-06T00:01:00;11.93;;;4.45;;
72132;SDS011;60008;50.826;6.896;2023-04-06T00:03:45;10.95;;;4.85;;
72132;SDS011;60008;50.826;6.896;2023-04-06T00:06:30;12.25;;;4.78;;
72132;SDS011;60008;50.826;6.896;2023-04-06T00:09:16;9.90;;;4.90;;
72132;SDS011;60008;50.826;6.896;2023-04-06T00:12:01;12.17;;;5.33;;
72132;SDS011;60008;50.826;6.896;2023-04-06T00:14:46;9.75;;;4.55;;
72132;SDS011;60008;50.826;6.896;2023-04-06T00:17:31;10.38;;;5.10;;
72132;SDS011;60008;50.826;6.896;2023-04-06T00:20:16;11.88;;;5.18;;
72132;SDS011;60008;50.826;6.896;2023-04-06T00:23:01;13.27;;;5.50;;
72132;SDS011;60008;50.826;6.896;2023-04-06T00:25:46;13.90;;;6.53;;
72132;SDS011;60008;50.826;6.896;2023-04-06T00:28:31;14.35;;;6.57;;
72132;SDS011;60008;50.826;6.896;2023-04-06T00:31:16;15.90;;;6.45;;
72132;SDS011;60008;50.826;6.896;2023-04-06T00:34:01;16.35;;;6.75;;
72132;SDS011;60008;50.826;6.896;2023-04-06T00:36:46;13.98;;;6.10;;
72132;SDS011;60008;50.826;6.896;2023-04-06T00:39:31;14.77;;;5.50;;
72132;SDS011;60008;50.826;6.896;2023-04-06T00:42:16;13.63;;;4.95;;
72132;SDS011;60008;50.826;6.896;2023-04-06T00:45:09;12.65;;;5.25;;
72132;SDS011;60008;50.826;6.896;2023-04-06T00:47:55;11.93;;;4.93;;
72132;SDS011;60008;50.826;6.896;2023-04-06T00:50:40;13.15;;;5.53;;
72132;SDS011;60008;50.826;6.896;2023-04-06T00:53:26;13.40;;;5.27;;
72132;SDS011;60008;50.826;6.896;2023-04-06T00:56:11;14.60;;;5.15;;
72132;SDS011;60008;50.826;6.896;2023-04-06T00:58:56;12.00;;;5.15;;
72132;SDS011;60008;50.826;6.896;2023-04-06T01:01:41;12.82;;;4.70;;
72132;SDS011;60008;50.826;6.896;2023-04-06T01:04:26;12.52;;;4.88;;
72132;SDS011;60008;50.826;6.896;2023-04-06T01:07:12;13.03;;;4.63;;
72132;SDS011;60008;50.826;6.896;2023-04-06T01:09:57;12.60;;;5.22;;
72132;SDS011;60008;50.826;6.896;2023-04-06T01:12:42;11.82;;;5.22;;
72132;SDS011;60008;50.826;6.896;2023-04-06T01:15:27;10.23;;;5.22;;
72132;SDS011;60008;50.826;6.896;2023-04-06T01:18:13;11.07;;;5.00;;
72132;SDS011;60008;50.826;6.896;2023-04-06T01:20:58;11.43;;;5.17;;
72132;SDS011;60008;50.826;6.896;2023-04-06T01:23:44;12.80;;;4.90;;
72132;SDS011;60008;50.826;6.896;2023-04-06T01:26:31;15.77;;;5.72;;
72132;SDS011;60008;50.826;6.896;2023-04-06T01:29:16;13.00;;;5.35;;
72132;SDS011;60008;50.826;6.896;2023-04-06T01:32:01;11.50;;;5.00;;
72132;SDS011;60008;50.826;6.896;2023-04-06T01:34:46;10.20;;;4.33;;
72132;SDS011;60008;50.826;6.896;2023-04-06T01:37:32;11.73;;;4.90;;
72132;SDS011;60008;50.826;6.896;2023-04-06T01:40:17;10.40;;;4.90;;
72132;SDS011;60008;50.826;6.896;2023-04-06T01:43:02;10.45;;;4.90;;
72132;SDS011;60008;50.826;6.896;2023-04-06T01:45:47;11.48;;;5.10;;
72132;SDS011;60008;50.826;6.896;2023-04-06T01:48:32;14.97;;;5.20;;
72132;SDS011;60008;50.826;6.896;2023-04-06T01:51:17;12.40;;;5.30;;
72132;SDS011;60008;50.826;6.896;2023-04-06T01:54:02;13.25;;;5.10;;
72132;SDS011;60008;50.826;6.896;2023-04-06T01:56:47;11.98;;;5.30;;
72132;SDS011;60008;50.826;6.896;2023-04-06T01:59:35;10.93;;;5.22;;
72132;SDS011;60008;50.826;6.896;2023-04-06T02:02:19;12.60;;;5.37;;
72132;SDS011;60008;50.826;6.896;2023-04-06T02:05:05;11.15;;;5.10;;
72132;SDS011;60008;50.826;6.896;2023-04-06T02:07:50;10.13;;;4.85;;
72132;SDS011;60008;50.826;6.896;2023-04-06T02:10:36;12.60;;;5.22;;
72132;SDS011;60008;50.826;6.896;2023-04-06T02:13:21;11.00;;;5.53;;
72132;SDS011;60008;50.826;6.896;2023-04-06T02:16:06;12.27;;;5.40;;
72132;SDS011;60008;50.826;6.896;2023-04-06T02:18:51;11.57;;;4.70;;
72132;SDS011;60008;50.826;6.896;2023-04-06T02:21:36;11.43;;;5.53;;
72132;SDS011;60008;50.826;6.896;2023-04-06T02:24:21;11.50;;;5.03;;
72132;SDS011;60008;50.826;6.896;2023-04-06T02:27:06;11.10;;;5.30;;
72132;SDS011;60008;50.826;6.896;2023-04-06T02:29:51;11.23;;;5.23;;
72132;SDS011;60008;50.826;6.896;2023-04-06T02:32:36;12.40;;;5.50;;
72132;SDS011;60008;50.826;6.896;2023-04-06T02:35:21;15.20;;;5.07;;
72132;SDS011;60008;50.826;6.896;2023-04-06T02:38:06;12.98;;;5.45;;
72132;SDS011;60008;50.826;6.896;2023-04-06T02:40:51;10.82;;;4.85;;
72132;SDS011;60008;50.826;6.896;2023-04-06T02:43:36;12.80;;;4.97;;
72132;SDS011;60008;50.826;6.896;2023-04-06T02:46:21;11.40;;;5.15;;
72132;SDS011;60008;50.826;6.896;2023-04-06T02:49:06;11.50;;;5.28;;
72132;SDS011;60008;50.826;6.896;2023-04-06T02:51:52;11.27;;;5.18;;
72132;SDS011;60008;50.826;6.896;2023-04-06T02:54:37;10.25;;;4.80;;
72132;SDS011;60008;50.826;6.896;2023-04-06T02:57:22;14.60;;;5.47;;
72132;SDS011;60008;50.826;6.896;2023-04-06T03:00:07;13.30;;;5.07;;
72132;SDS011;60008;50.826;6.896;2023-04-06T03:02:52;11.68;;;5.22;;
72132;SDS011;60008;50.826;6.896;2023-04-06T03:05:37;11.55;;;5.07;;
72132;SDS011;60008;50.826;6.896;2023-04-06T03:08:22;11.32;;;5.30;;
72132;SDS011;60008;50.826;6.896;2023-04-06T03:11:07;10.33;;;4.73;;
72132;SDS011;60008;50.826;6.896;2023-04-06T03:13:52;12.85;;;5.40;;
72132;SDS011;60008;50.826;6.896;2023-04-06T03:16:37;13.10;;;5.13;;
72132;SDS011;60008;50.826;6.896;2023-04-06T03:19:22;25.73;;;8.60;;
72132;SDS011;60008;50.826;6.896;2023-04-06T03:22:07;12.30;;;5.47;;
72132;SDS011;60008;50.826;6.896;2023-04-06T03:24:52;12.83;;;5.40;;
72132;SDS011;60008;50.826;6.896;2023-04-06T03:27:37;15.05;;;5.95;;
72132;SDS011;60008;50.826;6.896;2023-04-06T03:30:22;12.88;;;4.93;;
72132;SDS011;60008;50.826;6.896;2023-04-06T03:33:07;11.85;;;5.78;;
72132;SDS011;60008;50.826;6.896;2023-04-06T03:35:52;10.10;;;5.00;;
72132;SDS011;60008;50.826;6.896;2023-04-06T03:38:38;13.10;;;5.50;;
72132;SDS011;60008;50.826;6.896;2023-04-06T03:41:25;13.57;;;5.18;;
72132;SDS011;60008;50.826;6.896;2023-04-06T03:44:10;13.88;;;4.75;;
72132;SDS011;60008;50.826;6.896;2023-04-06T03:46:55;11.55;;;5.32;;
72132;SDS011;60008;50.826;6.896;2023-04-06T03:49:40;12.95;;;5.70;;
72132;SDS011;60008;50.826;6.896;2023-04-06T03:52:25;13.97;;;4.90;;
72132;SDS011;60008;50.826;6.896;2023-04-06T03:55:10;11.63;;;5.15;;
72132;SDS011;60008;50.826;6.896;2023-04-06T03:57:55;12.35;;;5.97;;
72132;SDS011;60008;50.826;6.896;2023-04-06T04:00:40;12.15;;;5.03;;
72132;SDS011;60008;50.826;6.896;2023-04-06T04:03:25;11.98;;;4.30;;
72132;SDS011;60008;50.826;6.896;2023-04-06T04:06:12;10.60;;;4.80;;
72132;SDS011;60008;50.826;6.896;2023-04-06T04:08:57;10.88;;;4.72;;
72132;SDS011;60008;50.826;6.896;2023-04-06T04:11:41;18.75;;;5.38;;
72132;SDS011;60008;50.826;6.896;2023-04-06T04:14:27;12.50;;;4.72;;
72132;SDS011;60008;50.826;6.896;2023-04-06T04:17:11;13.10;;;5.18;;
72132;SDS011;60008;50.826;6.896;2023-04-06T04:19:56;13.53;;;5.17;;
72132;SDS011;60008;50.826;6.896;2023-04-06T04:22:41;12.63;;;5.07;;
72132;SDS011;60008;50.826;6.896;2023-04-06T04:25:27;12.55;;;5.43;;
72132;SDS011;60008;50.826;6.896;2023-04-06T04:28:11;10.77;;;4.25;;
72132;SDS011;60008;50.826;6.896;2023-04-06T04:30:57;13.43;;;4.88;;
72132;SDS011;60008;50.826;6.896;2023-04-06T04:33:41;14.07;;;4.40;;
72132;SDS011;60008;50.826;6.896;2023-04-06T04:36:26;13.65;;;4.88;;
72132;SDS011;60008;50.826;6.896;2023-04-06T04:39:11;12.68;;;5.50;;
72132;SDS011;60008;50.826;6.896;2023-04-06T04:41:57;11.63;;;4.70;;
72132;SDS011;60008;50.826;6.896;2023-04-06T04:44:41;10.27;;;4.70;;
72132;SDS011;60008;50.826;6.896;2023-04-06T04:47:26;12.30;;;5.47;;
72132;SDS011;60008;50.826;6.896;2023-04-06T04:50:11;13.15;;;5.55;;
72132;SDS011;60008;50.826;6.896;2023-04-06T04:52:56;9.77;;;4.75;;
72132;SDS011;60008;50.826;6.896;2023-04-06T04:55:41;10.20;;;4.80;;
72132;SDS011;60008;50.826;6.896;2023-04-06T04:58:26;11.32;;;5.30;;
72132;SDS011;60008;50.826;6.896;2023-04-06T05:01:11;12.23;;;4.73;;
72132;SDS011;60008;50.826;6.896;2023-04-06T05:03:56;16.10;;;4.75;;
72132;SDS011;60008;50.826;6.896;2023-04-06T05:06:41;10.27;;;4.75;;
72132;SDS011;60008;50.826;6.896;2023-04-06T05:09:26;11.95;;;5.03;;
72132;SDS011;60008;50.826;6.896;2023-04-06T05:12:11;15.82;;;4.90;;
72132;SDS011;60008;50.826;6.896;2023-04-06T05:14:56;10.83;;;5.10;;
72132;SDS011;60008;50.826;6.896;2023-04-06T05:17:41;10.60;;;4.97;;
72132;SDS011;60008;50.826;6.896;2023-04-06T05:20:26;11.98;;;4.75;;
72132;SDS011;60008;50.826;6.896;2023-04-06T05:23:12;14.77;;;5.40;;
72132;SDS011;60008;50.826;6.896;2023-04-06T05:25:57;11.73;;;5.40;;
72132;SDS011;60008;50.826;6.896;2023-04-06T05:28:42;13.10;;;5.27;;
72132;SDS011;60008;50.826;6.896;2023-04-06T05:31:29;15.80;;;5.47;;
72132;SDS011;60008;50.826;6.896;2023-04-06T05:34:14;20.63;;;5.85;;
72132;SDS011;60008;50.826;6.896;2023-04-06T05:36:59;13.43;;;5.22;;
72132;SDS011;60008;50.826;6.896;2023-04-06T05:39:45;14.63;;;6.00;;
72132;SDS011;60008;50.826;6.896;2023-04-06T05:42:37;13.13;;;6.07;;
72132;SDS011;60008;50.826;6.896;2023-04-06T05:45:22;13.25;;;5.25;;
72132;SDS011;60008;50.826;6.896;2023-04-06T05:48:07;12.80;;;5.60;;
72132;SDS011;60008;50.826;6.896;2023-04-06T05:50:52;12.38;;;5.68;;
72132;SDS011;60008;50.826;6.896;2023-04-06T05:53:40;11.85;;;5.35;;
72132;SDS011;60008;50.826;6.896;2023-04-06T05:56:25;11.40;;;5.17;;
72132;SDS011;60008;50.826;6.896;2023-04-06T05:59:10;10.55;;;5.13;;
72132;SDS011;60008;50.826;6.896;2023-04-06T06:01:55;10.70;;;5.60;;
72132;SDS011;60008;50.826;6.896;2023-04-06T06:04:40;12.45;;;5.18;;
72132;SDS011;60008;50.826;6.896;2023-04-06T06:07:25;19.45;;;9.10;;
72132;SDS011;60008;50.826;6.896;2023-04-06T06:10:10;21.07;;;7.23;;
72132;SDS011;60008;50.826;6.896;2023-04-06T06:12:56;13.52;;;6.53;;
72132;SDS011;60008;50.826;6.896;2023-04-06T06:15:41;13.55;;;6.13;;
72132;SDS011;60008;50.826;6.896;2023-04-06T06:18:26;12.90;;;6.05;;
72132;SDS011;60008;50.826;6.896;2023-04-06T06:21:11;14.43;;;6.13;;
72132;SDS011;60008;50.826;6.896;2023-04-06T06:23:57;11.97;;;4.40;;
72132;SDS011;60008;50.826;6.896;2023-04-06T06:26:41;10.73;;;4.43;;
72132;SDS011;60008;50.826;6.896;2023-04-06T06:29:27;11.93;;;5.13;;
72132;SDS011;60008;50.826;6.896;2023-04-06T06:32:12;13.60;;;4.13;;
72132;SDS011;60008;50.826;6.896;2023-04-06T06:34:57;11.50;;;4.60;;
72132;SDS011;60008;50.826;6.896;2023-04-06T06:37:42;10.07;;;4.43;;
72132;SDS011;60008;50.826;6.896;2023-04-06T06:40:27;9.52;;;3.80;;
72132;SDS011;60008;50.826;6.896;2023-04-06T06:43:12;7.30;;;3.75;;
72132;SDS011;60008;50.826;6.896;2023-04-06T06:45:57;10.98;;;4.18;;
72132;SDS011;60008;50.826;6.896;2023-04-06T06:48:43;15.20;;;5.05;;
72132;SDS011;60008;50.826;6.896;2023-04-06T06:51:28;10.53;;;4.03;;
72132;SDS011;60008;50.826;6.896;2023-04-06T06:54:13;12.10;;;4.05;;
72132;SDS011;60008;50.826;6.896;2023-04-06T06:56:59;9.13;;;3.75;;
72132;SDS011;60008;50.826;6.896;2023-04-06T06:59:45;11.23;;;4.30;;
72132;SDS011;60008;50.826;6.896;2023-04-06T07:02:30;9.15;;;4.35;;
72132;SDS011;60008;50.826;6.896;2023-04-06T07:05:15;15.30;;;6.73;;
72132;SDS011;60008;50.826;6.896;2023-04-06T07:08:07;12.23;;;5.38;;
72132;SDS011;60008;50.826;6.896;2023-04-06T07:10:52;12.30;;;5.32;;
72132;SDS011;60008;50.826;6.896;2023-04-06T07:13:37;17.73;;;4.45;;
72132;SDS011;60008;50.826;6.896;2023-04-06T07:16:22;9.20;;;4.22;;
72132;SDS011;60008;50.826;6.896;2023-04-06T07:19:07;7.23;;;3.00;;
72132;SDS011;60008;50.826;6.896;2023-04-06T07:21:54;11.02;;;4.97;;
72132;SDS011;60008;50.826;6.896;2023-04-06T07:24:39;11.63;;;4.97;;
72132;SDS011;60008;50.826;6.896;2023-04-06T07:27:24;14.40;;;6.00;;
72132;SDS011;60008;50.826;6.896;2023-04-06T07:30:09;13.20;;;5.70;;
72132;SDS011;60008;50.826;6.896;2023-04-06T07:32:55;14.80;;;5.60;;
72132;SDS011;60008;50.826;6.896;2023-04-06T07:35:40;15.90;;;6.30;;
72132;SDS011;60008;50.826;6.896;2023-04-06T07:38:25;12.00;;;5.22;;
72132;SDS011;60008;50.826;6.896;2023-04-06T07:41:10;11.80;;;5.03;;
72132;SDS011;60008;50.826;6.896;2023-04-06T07:43:56;10.18;;;4.80;;
72132;SDS011;60008;50.826;6.896;2023-04-06T07:46:41;18.60;;;7.83;;
72132;SDS011;60008;50.826;6.896;2023-04-06T07:49:25;12.02;;;5.70;;
72132;SDS011;60008;50.826;6.896;2023-04-06T07:52:10;9.40;;;5.20;;
72132;SDS011;60008;50.826;6.896;2023-04-06T07:54:55;11.48;;;4.55;;
72132;SDS011;60008;50.826;6.896;2023-04-06T07:57:40;13.15;;;6.25;;
72132;SDS011;60008;50.826;6.896;2023-04-06T08:00:25;11.10;;;5.23;;
72132;SDS011;60008;50.826;6.896;2023-04-06T08:03:10;11.50;;;4.60;;
72132;SDS011;60008;50.826;6.896;2023-04-06T08:05:56;9.75;;;4.80;;
72132;SDS011;60008;50.826;6.896;2023-04-06T08:08:41;12.50;;;5.25;;
72132;SDS011;60008;50.826;6.896;2023-04-06T08:11:27;13.63;;;5.68;;
72132;SDS011;60008;50.826;6.896;2023-04-06T08:14:12;10.43;;;5.13;;
72132;SDS011;60008;50.826;6.896;2023-04-06T08:16:57;12.77;;;5.90;;
72132;SDS011;60008;50.826;6.896;2023-04-06T08:19:42;13.93;;;6.20;;
72132;SDS011;60008;50.826;6.896;2023-04-06T08:22:29;14.18;;;6.47;;
72132;SDS011;60008;50.826;6.896;2023-04-06T08:25:13;8.93;;;4.00;;
72132;SDS011;60008;50.826;6.896;2023-04-06T08:27:58;14.27;;;5.97;;
72132;SDS011;60008;50.826;6.896;2023-04-06T08:30:44;11.05;;;4.85;;
72132;SDS011;60008;50.826;6.896;2023-04-06T08:33:29;11.10;;;5.80;;
72132;SDS011;60008;50.826;6.896;2023-04-06T08:36:14;10.10;;;4.78;;
72132;SDS011;60008;50.826;6.896;2023-04-06T08:39:00;12.57;;;5.35;;
72132;SDS011;60008;50.826;6.896;2023-04-06T08:41:45;12.13;;;5.53;;
72132;SDS011;60008;50.826;6.896;2023-04-06T08:44:31;11.00;;;5.50;;
72132;SDS011;60008;50.826;6.896;2023-04-06T08:47:17;10.32;;;5.68;;
72132;SDS011;60008;50.826;6.896;2023-04-06T08:50:06;13.82;;;5.63;;
72132;SDS011;60008;50.826;6.896;2023-04-06T08:52:52;14.10;;;5.63;;
72132;SDS011;60008;50.826;6.896;2023-04-06T08:55:37;11.23;;;5.83;;
72132;SDS011;60008;50.826;6.896;2023-04-06T08:58:23;11.35;;;5.85;;
72132;SDS011;60008;50.826;6.896;2023-04-06T09:01:26;10.85;;;5.85;;
72132;SDS011;60008;50.826;6.896;2023-04-06T09:04:12;13.82;;;5.53;;
72132;SDS011;60008;50.826;6.896;2023-04-06T09:06:58;15.27;;;6.80;;
72132;SDS011;60008;50.826;6.896;2023-04-06T09:09:44;16.93;;;6.60;;
72132;SDS011;60008;50.826;6.896;2023-04-06T09:12:32;11.30;;;5.38;;
72132;SDS011;60008;50.826;6.896;2023-04-06T09:15:19;13.20;;;6.22;;
72132;SDS011;60008;50.826;6.896;2023-04-06T09:18:08;13.10;;;6.15;;
72132;SDS011;60008;50.826;6.896;2023-04-06T09:21:03;14.63;;;6.05;;
72132;SDS011;60008;50.826;6.896;2023-04-06T09:23:59;19.20;;;6.00;;
72132;SDS011;60008;50.826;6.896;2023-04-06T09:26:45;12.75;;;5.72;;
72132;SDS011;60008;50.826;6.896;2023-04-06T09:29:31;12.57;;;6.43;;
72132;SDS011;60008;50.826;6.896;2023-04-06T09:32:16;10.48;;;5.82;;
72132;SDS011;60008;50.826;6.896;2023-04-06T09:35:08;11.35;;;5.93;;
72132;SDS011;60008;50.826;6.896;2023-04-06T09:37:53;17.70;;;6.53;;
72132;SDS011;60008;50.826;6.896;2023-04-06T09:40:49;15.35;;;6.20;;
72132;SDS011;60008;50.826;6.896;2023-04-06T09:43:45;13.88;;;6.57;;
72132;SDS011;60008;50.826;6.896;2023-04-06T09:46:31;17.17;;;6.25;;
72132;SDS011;60008;50.826;6.896;2023-04-06T09:49:39;12.00;;;6.10;;
72132;SDS011;60008;50.826;6.896;2023-04-06T09:52:26;13.90;;;6.23;;
72132;SDS011;60008;50.826;6.896;2023-04-06T09:55:20;15.73;;;6.57;;
72132;SDS011;60008;50.826;6.896;2023-04-06T09:58:09;11.88;;;6.40;;
72132;SDS011;60008;50.826;6.896;2023-04-06T10:01:07;12.05;;;5.63;;
72132;SDS011;60008;50.826;6.896;2023-04-06T10:06:50;15.17;;;6.53;;
72132;SDS011;60008;50.826;6.896;2023-04-06T10:09:37;15.65;;;6.43;;
72132;SDS011;60008;50.826;6.896;2023-04-06T10:12:22;16.50;;;6.75;;
72132;SDS011;60008;50.826;6.896;2023-04-06T10:15:07;16.20;;;6.45;;
72132;SDS011;60008;50.826;6.896;2023-04-06T10:17:53;14.38;;;6.25;;
72132;SDS011;60008;50.826;6.896;2023-04-06T10:27:02;18.52;;;6.22;;
72132;SDS011;60008;50.826;6.896;2023-04-06T10:29:48;15.18;;;5.80;;
72132;SDS011;60008;50.826;6.896;2023-04-06T10:32:37;16.33;;;5.53;;
72132;SDS011;60008;50.826;6.896;2023-04-06T10:35:23;17.03;;;5.77;;
72132;SDS011;60008;50.826;6.896;2023-04-06T10:38:09;14.98;;;5.80;;
72132;SDS011;60008;50.826;6.896;2023-04-06T10:40:54;12.75;;;5.65;;
72132;SDS011;60008;50.826;6.896;2023-04-06T10:43:56;12.95;;;5.50;;
72132;SDS011;60008;50.826;6.896;2023-04-06T10:46:41;14.80;;;6.15;;
72132;SDS011;60008;50.826;6.896;2023-04-06T10:49:37;15.00;;;5.50;;
72132;SDS011;60008;50.826;6.896;2023-04-06T10:52:22;14.63;;;5.30;;
72132;SDS011;60008;50.826;6.896;2023-04-06T10:55:08;12.75;;;5.07;;
72132;SDS011;60008;50.826;6.896;2023-04-06T10:57:55;12.55;;;5.40;;
72132;SDS011;60008;50.826;6.896;2023-04-06T11:00:47;12.18;;;5.22;;
72132;SDS011;60008;50.826;6.896;2023-04-06T11:03:42;15.53;;;5.00;;
72132;SDS011;60008;50.826;6.896;2023-04-06T11:06:30;11.48;;;4.85;;
72132;SDS011;60008;50.826;6.896;2023-04-06T11:09:26;17.02;;;5.53;;
72132;SDS011;60008;50.826;6.896;2023-04-06T11:12:25;8.27;;;3.30;;
72132;SDS011;60008;50.826;6.896;2023-04-06T11:15:12;16.20;;;5.93;;
72132;SDS011;60008;50.826;6.896;2023-04-06T11:17:57;14.50;;;5.40;;
72132;SDS011;60008;50.826;6.896;2023-04-06T11:20:46;10.40;;;4.55;;
72132;SDS011;60008;50.826;6.896;2023-04-06T11:23:32;14.60;;;5.28;;
72132;SDS011;60008;50.826;6.896;2023-04-06T11:26:17;16.92;;;5.95;;
72132;SDS011;60008;50.826;6.896;2023-04-06T11:29:02;12.00;;;5.43;;
72132;SDS011;60008;50.826;6.896;2023-04-06T11:32:05;11.90;;;5.10;;
72132;SDS011;60008;50.826;6.896;2023-04-06T11:34:52;10.68;;;4.72;;
72132;SDS011;60008;50.826;6.896;2023-04-06T11:37:37;10.60;;;4.20;;
72132;SDS011;60008;50.826;6.896;2023-04-06T11:40:22;13.15;;;5.20;;
72132;SDS011;60008;50.826;6.896;2023-04-06T11:43:10;17.40;;;6.10;;
72132;SDS011;60008;50.826;6.896;2023-04-06T11:45:59;12.10;;;5.00;;
72132;SDS011;60008;50.826;6.896;2023-04-06T11:48:46;14.65;;;5.97;;
72132;SDS011;60008;50.826;6.896;2023-04-06T11:51:35;14.02;;;5.50;;
72132;SDS011;60008;50.826;6.896;2023-04-06T11:54:36;13.85;;;5.82;;
72132;SDS011;60008;50.826;6.896;2023-04-06T11:57:22;13.77;;;5.95;;
72132;SDS011;60008;50.826;6.896;2023-04-06T12:00:10;10.93;;;4.50;;
72132;SDS011;60008;50.826;6.896;2023-04-06T12:02:56;9.60;;;4.00;;
72132;SDS011;60008;50.826;6.896;2023-04-06T12:05:41;10.52;;;4.50;;
72132;SDS011;60008;50.826;6.896;2023-04-06T12:08:26;9.70;;;4.25;;
72132;SDS011;60008;50.826;6.896;2023-04-06T12:11:11;10.40;;;4.32;;
72132;SDS011;60008;50.826;6.896;2023-04-06T12:13:56;10.73;;;3.80;;
72132;SDS011;60008;50.826;6.896;2023-04-06T12:16:41;10.73;;;3.95;;
72132;SDS011;60008;50.826;6.896;2023-04-06T12:19:27;9.27;;;4.10;;
72132;SDS011;60008;50.826;6.896;2023-04-06T12:22:13;10.23;;;3.97;;
72132;SDS011;60008;50.826;6.896;2023-04-06T12:24:58;5.63;;;2.33;;
72132;SDS011;60008;50.826;6.896;2023-04-06T12:27:43;6.07;;;2.97;;
72132;SDS011;60008;50.826;6.896;2023-04-06T12:30:28;9.48;;;4.47;;
72132;SDS011;60008;50.826;6.896;2023-04-06T12:33:13;6.35;;;2.92;;
72132;SDS011;60008;50.826;6.896;2023-04-06T12:35:58;6.40;;;2.67;;
72132;SDS011;60008;50.826;6.896;2023-04-06T12:38:43;9.90;;;3.95;;
72132;SDS011;60008;50.826;6.896;2023-04-06T12:41:30;7.67;;;3.50;;
72132;SDS011;60008;50.826;6.896;2023-04-06T12:44:15;10.10;;;4.00;;
72132;SDS011;60008;50.826;6.896;2023-04-06T12:47:00;10.25;;;5.05;;
72132;SDS011;60008;50.826;6.896;2023-04-06T12:49:46;13.32;;;6.43;;
72132;SDS011;60008;50.826;6.896;2023-04-06T12:52:31;10.88;;;5.05;;
72132;SDS011;60008;50.826;6.896;2023-04-06T12:55:16;8.03;;;4.30;;
72132;SDS011;60008;50.826;6.896;2023-04-06T12:58:01;9.02;;;4.30;;
72132;SDS011;60008;50.826;6.896;2023-04-06T13:00:46;4.85;;;2.40;;
72132;SDS011;60008;50.826;6.896;2023-04-06T13:03:32;6.90;;;3.72;;
72132;SDS011;60008;50.826;6.896;2023-04-06T13:06:18;6.88;;;3.38;;
72132;SDS011;60008;50.826;6.896;2023-04-06T13:09:03;8.33;;;3.67;;
72132;SDS011;60008;50.826;6.896;2023-04-06T13:11:50;10.07;;;3.75;;
72132;SDS011;60008;50.826;6.896;2023-04-06T13:14:35;8.50;;;4.00;;
72132;SDS011;60008;50.826;6.896;2023-04-06T13:17:20;7.07;;;2.75;;
72132;SDS011;60008;50.826;6.896;2023-04-06T13:20:05;3.75;;;1.88;;
72132;SDS011;60008;50.826;6.896;2023-04-06T13:22:51;6.13;;;2.43;;
72132;SDS011;60008;50.826;6.896;2023-04-06T13:25:36;5.82;;;2.60;;
72132;SDS011;60008;50.826;6.896;2023-04-06T13:28:21;5.63;;;2.28;;
72132;SDS011;60008;50.826;6.896;2023-04-06T13:31:06;5.07;;;2.05;;
72132;SDS011;60008;50.826;6.896;2023-04-06T13:33:51;5.90;;;2.08;;
72132;SDS011;60008;50.826;6.896;2023-04-06T13:36:36;7.97;;;2.77;;
72132;SDS011;60008;50.826;6.896;2023-04-06T13:39:21;4.45;;;1.73;;
72132;SDS011;60008;50.826;6.896;2023-04-06T13:42:06;10.10;;;3.45;;
72132;SDS011;60008;50.826;6.896;2023-04-06T13:44:51;4.45;;;1.90;;
72132;SDS011;60008;50.826;6.896;2023-04-06T13:47:36;9.13;;;3.40;;
72132;SDS011;60008;50.826;6.896;2023-04-06T13:50:22;6.97;;;3.67;;
72132;SDS011;60008;50.826;6.896;2023-04-06T13:53:07;8.95;;;3.15;;
72132;SDS011;60008;50.826;6.896;2023-04-06T13:55:52;6.30;;;2.78;;
72132;SDS011;60008;50.826;6.896;2023-04-06T13:58:38;6.03;;;2.78;;
72132;SDS011;60008;50.826;6.896;2023-04-06T14:01:23;6.20;;;2.30;;
72132;SDS011;60008;50.826;6.896;2023-04-06T14:04:09;12.30;;;4.13;;
72132;SDS011;60008;50.826;6.896;2023-04-06T14:06:55;9.10;;;3.53;;
72132;SDS011;60008;50.826;6.896;2023-04-06T14:09:40;7.45;;;3.38;;
72132;SDS011;60008;50.826;6.896;2023-04-06T14:12:25;3.20;;;1.45;;
72132;SDS011;60008;50.826;6.896;2023-04-06T14:15:11;7.32;;;2.95;;
72132;SDS011;60008;50.826;6.896;2023-04-06T14:17:57;9.90;;;2.97;;
72132;SDS011;60008;50.826;6.896;2023-04-06T14:20:42;8.00;;;2.88;;
72132;SDS011;60008;50.826;6.896;2023-04-06T14:23:28;4.22;;;2.05;;
72132;SDS011;60008;50.826;6.896;2023-04-06T14:26:13;5.85;;;2.75;;
72132;SDS011;60008;50.826;6.896;2023-04-06T14:28:58;5.30;;;2.42;;
72132;SDS011;60008;50.826;6.896;2023-04-06T14:31:45;7.40;;;3.50;;
72132;SDS011;60008;50.826;6.896;2023-04-06T14:34:32;5.32;;;2.20;;
72132;SDS011;60008;50.826;6.896;2023-04-06T14:37:16;3.95;;;2.25;;
72132;SDS011;60008;50.826;6.896;2023-04-06T14:40:02;2.42;;;1.15;;
72132;SDS011;60008;50.826;6.896;2023-04-06T14:42:48;5.80;;;2.65;;
72132;SDS011;60008;50.826;6.896;2023-04-06T14:45:35;4.87;;;2.60;;
72132;SDS011;60008;50.826;6.896;2023-04-06T14:48:21;7.10;;;3.60;;
72132;SDS011;60008;50.826;6.896;2023-04-06T14:51:06;4.95;;;2.30;;
72132;SDS011;60008;50.826;6.896;2023-04-06T14:53:51;4.20;;;1.67;;
72132;SDS011;60008;50.826;6.896;2023-04-06T14:56:36;2.95;;;1.52;;
72132;SDS011;60008;50.826;6.896;2023-04-06T14:59:23;8.57;;;3.30;;
72132;SDS011;60008;50.826;6.896;2023-04-06T15:02:08;6.38;;;3.17;;
72132;SDS011;60008;50.826;6.896;2023-04-06T15:04:53;7.97;;;3.35;;
72132;SDS011;60008;50.826;6.896;2023-04-06T15:07:38;7.45;;;3.80;;
72132;SDS011;60008;50.826;6.896;2023-04-06T15:10:24;5.80;;;2.63;;
72132;SDS011;60008;50.826;6.896;2023-04-06T15:13:09;9.40;;;3.80;;
72132;SDS011;60008;50.826;6.896;2023-04-06T15:15:53;7.90;;;3.85;;
72132;SDS011;60008;50.826;6.896;2023-04-06T15:18:39;5.55;;;2.88;;
72132;SDS011;60008;50.826;6.896;2023-04-06T15:21:25;6.78;;;3.47;;
72132;SDS011;60008;50.826;6.896;2023-04-06T15:24:11;7.95;;;3.78;;
72132;SDS011;60008;50.826;6.896;2023-04-06T15:26:56;8.13;;;4.30;;
72132;SDS011;60008;50.826;6.896;2023-04-06T15:29:41;8.77;;;3.67;;
72132;SDS011;60008;50.826;6.896;2023-04-06T15:32:26;17.52;;;5.88;;
72132;SDS011;60008;50.826;6.896;2023-04-06T15:35:11;11.20;;;4.90;;
72132;SDS011;60008;50.826;6.896;2023-04-06T15:37:56;8.50;;;4.47;;
72132;SDS011;60008;50.826;6.896;2023-04-06T15:40:43;8.03;;;4.10;;
72132;SDS011;60008;50.826;6.896;2023-04-06T15:43:30;4.90;;;1.85;;
72132;SDS011;60008;50.826;6.896;2023-04-06T15:46:15;10.80;;;5.05;;
72132;SDS011;60008;50.826;6.896;2023-04-06T15:49:00;8.90;;;3.97;;
72132;SDS011;60008;50.826;6.896;2023-04-06T15:51:48;7.50;;;3.72;;
72132;SDS011;60008;50.826;6.896;2023-04-06T15:54:34;12.73;;;4.57;;
72132;SDS011;60008;50.826;6.896;2023-04-06T15:57:20;10.48;;;4.75;;
72132;SDS011;60008;50.826;6.896;2023-04-06T16:00:05;9.68;;;4.63;;
72132;SDS011;60008;50.826;6.896;2023-04-06T16:02:51;10.07;;;4.63;;
72132;SDS011;60008;50.826;6.896;2023-04-06T16:05:36;10.20;;;5.00;;
72132;SDS011;60008;50.826;6.896;2023-04-06T16:08:41;5.90;;;2.60;;
72132;SDS011;60008;50.826;6.896;2023-04-06T16:11:26;9.52;;;4.45;;
72132;SDS011;60008;50.826;6.896;2023-04-06T16:14:12;8.05;;;3.67;;
72132;SDS011;60008;50.826;6.896;2023-04-06T16:16:57;6.78;;;3.72;;
72132;SDS011;60008;50.826;6.896;2023-04-06T16:19:42;13.00;;;5.43;;
72132;SDS011;60008;50.826;6.896;2023-04-06T16:22:27;9.83;;;4.47;;
72132;SDS011;60008;50.826;6.896;2023-04-06T16:25:12;10.48;;;4.68;;
72132;SDS011;60008;50.826;6.896;2023-04-06T16:27:57;5.70;;;3.05;;
72132;SDS011;60008;50.826;6.896;2023-04-06T16:30:42;7.88;;;4.00;;
72132;SDS011;60008;50.826;6.896;2023-04-06T16:33:30;9.75;;;3.85;;
72132;SDS011;60008;50.826;6.896;2023-04-06T16:36:24;9.77;;;4.03;;
72132;SDS011;60008;50.826;6.896;2023-04-06T16:39:11;7.80;;;3.80;;